Time;durP1;ratioP1;P1;durP2;ratioP2;P2;SDS_P1;SDS_P2;PMS_P1;PMS_P2;Temp;Humidity;BMP_temperature;BMP_pressure;BME280_temperature;BME280_humidity;BME280_pressure;Samples;Min_cycle;Max_cycle;Signal;HPM_P1;HPM_P2
2024/04/21 00:06:31;;;;;;;0.22;0.22;;;;;;;3.89;63.88;101520.69;16685972;26;20019;-47
2024/04/21 00:14:13;;;;;;;0.22;0.22;;;;;;;4.34;63.06;101533.16;16686150;26;20446;-45
2024/04/21 00:21:49;;;;;;;0.10;0.10;;;;;;;4.33;63.80;101534.13;16684749;26;20007;-46
2024/04/21 00:29:27;;;;;;;0.35;0.25;;;;;;;4.09;64.42;101535.53;16683744;26;20004;-46
2024/04/21 00:37:01;;;;;;;0.40;0.40;;;;;;;3.52;65.89;101540.13;16649628;26;20351;-46
2024/04/21 00:44:39;;;;;;;0.00;0.00;;;;;;;4.04;64.47;101536.97;16668667;26;20004;-49
2024/04/21 00:52:17;;;;;;;0.00;0.00;;;;;;;3.59;65.70;101543.06;16677370;26;20019;-50
2024/04/21 00:59:57;;;;;;;0.05;0.05;;;;;;;3.59;65.70;101540.41;16666228;26;20015;-48
2024/04/21 01:07:32;;;;;;;0.17;0.17;;;;;;;3.29;65.93;101542.28;16671381;26;20022;-48
2024/04/21 01:15:14;;;;;;;0.00;0.00;;;;;;;3.57;65.68;101545.81;16677626;26;20019;-47
2024/04/21 01:22:53;;;;;;;0.00;0.00;;;;;;;3.30;66.55;101556.38;16674893;26;20008;-47
2024/04/21 01:30:28;;;;;;;0.28;0.28;;;;;;;3.10;67.79;101552.94;16666472;26;20040;-46
2024/04/21 01:38:09;;;;;;;0.00;0.00;;;;;;;2.84;67.72;101527.94;16673100;26;20602;-46
2024/04/21 01:45:45;;;;;;;0.15;0.15;;;;;;;3.03;67.89;101551.81;16676607;26;20050;-51
2024/04/21 01:53:24;;;;;;;0.08;0.05;;;;;;;2.68;68.33;101565.63;16668456;26;20012;-47
2024/04/21 02:01:03;;;;;;;0.20;0.20;;;;;;;2.71;68.67;101558.25;16663566;26;20011;-46
2024/04/21 02:08:40;;;;;;;0.57;0.57;;;;;;;2.34;69.44;101575.78;16680117;26;20015;-47
2024/04/21 02:16:15;;;;;;;0.00;0.00;;;;;;;2.36;69.78;101579.13;16674545;26;20406;-47
2024/04/21 02:23:53;;;;;;;0.93;0.52;;;;;;;2.20;69.26;101571.69;16629954;26;20029;-45
2024/04/21 02:31:28;;;;;;;0.00;0.00;;;;;;;2.52;69.35;101571.50;16674974;26;20046;-49
2024/04/21 02:39:06;;;;;;;0.65;0.52;;;;;;;2.55;68.62;101568.53;16656640;26;20001;-49
2024/04/21 02:46:43;;;;;;;0.00;0.00;;;;;;;2.10;69.79;101581.41;16631750;26;20000;-46
2024/04/21 02:54:25;;;;;;;0.00;0.00;;;;;;;2.17;69.94;101579.91;16680019;26;20023;-46
2024/04/21 03:02:00;;;;;;;0.32;0.32;;;;;;;2.18;69.22;101586.88;16675728;26;19996;-49
2024/04/21 03:09:38;;;;;;;0.00;0.00;;;;;;;1.31;73.14;101584.66;16679041;26;20470;-46
2024/04/21 03:17:21;;;;;;;0.00;0.00;;;;;;;1.64;71.27;101583.59;16676889;26;20295;-48
2024/04/21 03:24:59;;;;;;;0.10;0.10;;;;;;;1.82;70.57;101581.19;16765793;21;20022;-56
2024/04/21 03:32:35;;;;;;;0.00;0.00;;;;;;;1.39;71.15;101576.88;16788823;26;20461;-48
2024/04/21 03:40:13;;;;;;;0.00;0.00;;;;;;;1.34;71.46;101588.84;16770761;26;20011;-51
2024/04/21 03:47:49;;;;;;;0.35;0.22;;;;;;;1.05;71.78;101597.41;16770107;26;20310;-49
2024/04/21 03:55:28;;;;;;;0.10;0.10;;;;;;;1.52;69.90;101609.28;16784612;26;20054;-53
2024/04/21 04:03:03;;;;;;;0.05;0.05;;;;;;;1.57;69.12;101622.13;16753367;26;20000;-52
2024/04/21 04:10:45;;;;;;;0.30;0.30;;;;;;;1.07;70.48;101627.19;16789090;26;20386;-54
2024/04/21 04:18:20;;;;;;;0.10;0.10;;;;;;;0.45;72.13;101633.13;16785337;26;20451;-55
2024/04/21 04:25:57;;;;;;;0.00;0.00;;;;;;;0.47;71.38;101639.16;16785944;26;20421;-52
2024/04/21 04:33:33;;;;;;;0.40;0.30;;;;;;;0.53;70.92;101645.75;16798634;26;20010;-54
2024/04/21 04:41:13;;;;;;;0.10;0.10;;;;;;;0.54;71.37;101663.25;16789668;26;20435;-50
2024/04/21 04:48:49;;;;;;;0.75;0.43;;;;;;;0.71;70.41;101663.59;16753168;26;19996;-50
2024/04/21 04:56:32;;;;;;;0.20;0.20;;;;;;;1.04;70.54;101679.50;16792723;26;20444;-52
2024/04/21 05:04:07;;;;;;;0.10;0.10;;;;;;;1.24;68.56;101691.91;16797939;26;20482;-53
2024/04/21 05:11:45;;;;;;;0.00;0.00;;;;;;;1.41;67.78;101698.47;16775190;26;20477;-51
2024/04/21 05:19:20;;;;;;;0.00;0.00;;;;;;;1.85;66.19;101704.47;16766627;26;20421;-49
2024/04/21 05:26:57;;;;;;;0.10;0.10;;;;;;;2.44;63.98;101719.72;16791301;26;20398;-49
2024/04/21 05:34:32;;;;;;;0.00;0.00;;;;;;;2.10;63.52;101737.63;16752113;26;20000;-49
2024/04/21 05:42:10;;;;;;;1.35;0.47;;;;;;;1.98;63.29;101737.72;16763124;26;19996;-52
2024/04/21 05:49:46;;;;;;;0.00;0.00;;;;;;;1.99;62.79;101746.50;16790914;26;19995;-53
2024/04/21 05:57:24;;;;;;;0.20;0.20;;;;;;;2.68;61.76;101740.56;16788536;26;19999;-51
2024/04/21 06:04:59;;;;;;;0.00;0.00;;;;;;;2.44;60.93;101752.34;16770744;26;20016;-49
2024/04/21 06:12:37;;;;;;;0.10;0.10;;;;;;;2.30;60.59;101752.69;16738049;26;20014;-48
2024/04/21 06:20:12;;;;;;;0.47;0.47;;;;;;;3.01;59.54;101774.72;16755876;26;20028;-52
2024/04/21 06:27:51;;;;;;;0.00;0.00;;;;;;;3.88;56.58;101774.00;16792166;26;20007;-50
2024/04/21 06:35:26;;;;;;;0.20;0.20;;;;;;;4.12;55.00;101780.66;16782004;26;20014;-53
2024/04/21 06:43:03;;;;;;;0.00;0.00;;;;;;;4.11;53.09;101781.66;16762361;26;20004;-53
2024/04/21 06:50:38;;;;;;;0.10;0.10;;;;;;;4.01;53.16;101790.47;16782284;26;20011;-55
2024/04/21 06:58:18;;;;;;;0.15;0.15;;;;;;;5.45;52.21;101787.34;16743030;26;20276;-49
2024/04/21 07:05:53;;;;;;;0.00;0.00;;;;;;;7.21;44.40;101796.06;16782427;26;20010;-53
2024/04/21 07:13:31;;;;;;;0.80;0.75;;;;;;;8.36;43.07;101800.53;16780044;26;20014;-53
2024/04/21 07:21:13;;;;;;;0.03;0.03;;;;;;;9.09;40.94;101802.16;16789363;26;20004;-54
2024/04/21 07:28:52;;;;;;;0.00;0.00;;;;;;;7.66;39.78;101810.88;16798593;26;20007;-54
2024/04/21 07:36:29;;;;;;;0.00;0.00;;;;;;;7.65;39.27;101815.38;16778266;26;20010;-51
2024/04/21 07:44:08;;;;;;;0.00;0.00;;;;;;;9.03;37.61;101810.88;16799937;26;20000;-50
2024/04/21 07:51:44;;;;;;;0.15;0.15;;;;;;;9.80;36.65;101826.22;16733968;26;20334;-49
2024/04/21 07:59:21;;;;;;;0.00;0.00;;;;;;;10.23;34.82;101827.38;16738890;26;20015;-52
2024/04/21 08:06:56;;;;;;;0.17;0.17;;;;;;;10.08;34.60;101824.66;16783489;26;20014;-55
2024/04/21 08:14:34;;;;;;;0.52;0.52;;;;;;;9.76;33.83;101831.09;16807999;26;20010;-49
2024/04/21 08:22:10;;;;;;;4.78;0.45;;;;;;;10.46;34.95;101832.72;16778958;26;20000;-53
2024/04/21 08:29:48;;;;;;;0.00;0.00;;;;;;;10.41;35.42;101829.75;16792392;26;20012;-52
2024/04/21 08:37:23;;;;;;;0.00;0.00;;;;;;;9.94;35.01;101828.13;16794299;26;20010;-51
2024/04/21 08:45:01;;;;;;;0.22;0.13;;;;;;;9.93;35.89;101831.78;16778030;26;20010;-51
2024/04/21 08:52:36;;;;;;;0.00;0.00;;;;;;;11.04;32.45;101831.06;16798650;26;19999;-48
2024/04/21 09:00:17;;;;;;;0.00;0.00;;;;;;;11.50;32.53;101833.50;16798639;26;20000;-48
2024/04/21 09:07:53;;;;;;;0.00;0.00;;;;;;;11.51;30.84;101829.78;16768000;26;20453;-51
2024/04/21 09:15:32;;;;;;;0.00;0.00;;;;;;;12.06;31.42;101825.63;16791840;26;20145;-49
2024/04/21 09:23:09;;;;;;;0.00;0.00;;;;;;;11.58;31.07;101817.25;16871001;21;20006;-56
2024/04/21 09:30:48;;;;;;;3.00;0.52;;;;;;;12.08;30.24;101815.50;16903674;26;19994;-60
2024/04/21 09:38:23;;;;;;;0.00;0.00;;;;;;;12.74;30.44;101820.56;16985519;26;20012;-57
2024/04/21 09:46:03;;;;;;;0.00;0.00;;;;;;;11.39;32.51;101820.56;17006922;26;19998;-54
2024/04/21 09:53:38;;;;;;;0.05;0.05;;;;;;;11.25;33.01;101822.25;16995752;26;20065;-53
2024/04/21 10:01:20;;;;;;;0.00;0.00;;;;;;;11.31;32.94;101809.91;16992510;26;20444;-54
2024/04/21 10:08:56;;;;;;;0.10;0.10;;;;;;;10.23;36.37;101813.94;16968621;26;20412;-57
2024/04/21 10:16:41;;;;;;;0.00;0.00;;;;;;;9.12;36.72;101812.50;17007326;26;20297;-57
2024/04/21 10:24:16;;;;;;;1.07;0.97;;;;;;;11.09;34.90;101812.53;16972746;26;19998;-55
2024/04/21 10:31:55;;;;;;;0.00;0.00;;;;;;;10.37;34.82;101812.34;17008548;26;20010;-58
2024/04/21 10:39:34;;;;;;;0.00;0.00;;;;;;;9.96;36.17;101813.50;16912762;26;20006;-50
2024/04/21 10:47:12;;;;;;;0.00;0.00;;;;;;;9.78;36.80;101812.13;17000530;26;19998;-54
2024/04/21 10:54:48;;;;;;;0.75;0.40;;;;;;;10.37;35.41;101818.53;16950401;26;20116;-52
2024/04/21 11:02:26;;;;;;;0.65;0.65;;;;;;;11.52;33.88;101809.09;16938894;26;20009;-55
2024/04/21 11:10:04;;;;;;;0.47;0.20;;;;;;;12.18;32.02;101812.47;16903514;26;19995;-54
2024/04/21 11:17:41;;;;;;;0.00;0.00;;;;;;;10.35;35.92;101809.84;16905709;26;20022;-51
2024/04/21 11:25:17;;;;;;;0.22;0.22;;;;;;;10.53;38.43;101804.13;16897699;26;20003;-56
2024/04/21 11:32:56;;;;;;;0.00;0.00;;;;;;;10.69;38.01;101806.63;16871112;26;20073;-54
2024/04/21 11:40:31;;;;;;;0.38;0.38;;;;;;;10.58;37.39;101800.88;16909092;26;20040;-51
2024/04/21 11:48:12;;;;;;;0.10;0.10;;;;;;;10.41;36.63;101800.22;16884922;26;20002;-56
2024/04/21 11:55:49;;;;;;;0.00;0.00;;;;;;;10.08;36.48;101802.34;16918032;26;20023;-55
2024/04/21 12:03:27;;;;;;;0.00;0.00;;;;;;;9.75;37.67;101796.41;16923277;26;20420;-53
2024/04/21 12:11:03;;;;;;;0.00;0.00;;;;;;;11.60;35.38;101796.38;16906627;26;20433;-53
2024/04/21 12:18:42;;;;;;;0.10;0.10;;;;;;;11.41;33.35;101794.31;17010205;26;20036;-57
2024/04/21 12:26:19;;;;;;;0.03;0.03;;;;;;;12.21;32.21;101788.69;17014260;26;20520;-57
2024/04/21 12:33:57;;;;;;;0.10;0.00;;;;;;;11.18;32.27;101784.53;17009782;26;20305;-54
2024/04/21 12:41:32;;;;;;;0.13;0.13;;;;;;;12.84;31.41;101769.81;17005842;26;20055;-56
2024/04/21 12:49:09;;;;;;;0.00;0.00;;;;;;;12.41;31.85;101767.31;16997837;26;20306;-54
2024/04/21 12:56:47;;;;;;;0.00;0.00;;;;;;;10.60;35.26;101770.16;17002072;26;20650;-54
2024/04/21 13:04:24;;;;;;;0.47;0.43;;;;;;;11.13;37.51;101767.31;16972802;26;20002;-57
2024/04/21 13:12:00;;;;;;;3.05;0.55;;;;;;;12.55;33.83;101754.75;17006562;26;20013;-49
2024/04/21 13:19:41;;;;;;;0.00;0.00;;;;;;;13.18;34.22;101757.31;16994319;26;20476;-50
2024/04/21 13:27:17;;;;;;;0.00;0.00;;;;;;;12.67;32.37;101761.22;16986935;26;20328;-52
2024/04/21 13:34:55;;;;;;;0.32;0.25;;;;;;;11.83;34.94;101769.31;16957840;26;20086;-51
2024/04/21 13:42:31;;;;;;;0.00;0.00;;;;;;;10.63;35.75;101768.94;17008121;26;20059;-53
2024/04/21 13:50:10;;;;;;;0.00;0.00;;;;;;;10.53;38.30;101771.91;16973040;26;20098;-52
2024/04/21 13:57:45;;;;;;;0.00;0.00;;;;;;;10.11;39.62;101780.50;16953988;26;19994;-54
2024/04/21 14:05:25;;;;;;;0.52;0.40;;;;;;;10.31;40.73;101779.03;16988308;26;20017;-57
2024/04/21 14:13:00;;;;;;;0.00;0.00;;;;;;;10.29;40.15;101783.72;16990799;26;20337;-52
2024/04/21 14:20:38;;;;;;;0.00;0.00;;;;;;;9.77;40.91;101789.00;16998789;26;20009;-52
2024/04/21 14:28:14;;;;;;;0.00;0.00;;;;;;;9.84;41.51;101766.69;16982020;26;19994;-57
2024/04/21 14:35:51;;;;;;;0.00;0.00;;;;;;;10.17;40.69;101783.31;16975696;26;20011;-55
2024/04/21 14:43:28;;;;;;;0.00;0.00;;;;;;;10.40;40.08;101767.19;17004602;26;20042;-51
2024/04/21 14:51:07;;;;;;;0.00;0.00;;;;;;;10.73;39.99;101764.16;16979367;26;20585;-57
2024/04/21 14:58:42;;;;;;;0.03;0.03;;;;;;;10.88;37.90;101764.97;17002136;26;20105;-52
2024/04/21 15:06:20;;;;;;;0.22;0.20;;;;;;;10.48;38.08;101764.41;16981060;26;20306;-53
2024/04/21 15:13:55;;;;;;;0.00;0.00;;;;;;;10.09;40.10;101763.78;16989066;26;20095;-56
2024/04/21 15:21:34;;;;;;;0.10;0.10;;;;;;;9.75;40.07;101770.44;16938903;21;20098;-51
2024/04/21 15:36:50;;;;;;;0.00;0.00;;;;;;;9.47;44.57;101780.03;16745630;26;20453;-53
2024/04/21 15:44:48;;;;;;;0.13;0.10;;;;;;;9.15;44.76;101789.91;16637914;26;20001;-52
2024/04/21 15:52:27;;;;;;;0.00;0.00;;;;;;;9.15;46.01;101800.63;16745998;26;20003;-52
2024/04/21 16:00:04;;;;;;;0.00;0.00;;;;;;;9.27;44.98;101788.50;16737803;26;19997;-52
2024/04/21 16:07:44;;;;;;;0.10;0.10;;;;;;;8.31;51.06;101826.94;16725912;26;20005;-50
2024/04/21 16:15:19;;;;;;;0.00;0.00;;;;;;;7.70;54.00;101830.91;16678251;26;20012;-51
2024/04/21 16:22:58;;;;;;;0.00;0.00;;;;;;;7.46;55.01;101845.06;16680230;26;20073;-53
2024/04/21 16:30:33;;;;;;;0.00;0.00;;;;;;;7.20;55.88;101850.47;16691387;26;20133;-51
2024/04/21 16:38:11;;;;;;;1.35;0.68;;;;;;;7.31;56.25;101852.84;16734124;26;20080;-51
2024/04/21 16:45:50;;;;;;;0.05;0.05;;;;;;;7.49;56.87;101860.75;16721143;26;20008;-49
2024/04/21 16:53:29;;;;;;;0.00;0.00;;;;;;;7.61;57.68;101866.63;16723729;26;20004;-49
2024/04/21 17:01:05;;;;;;;0.93;0.25;;;;;;;6.96;56.56;101867.22;16694835;26;20005;-51
2024/04/21 17:08:43;;;;;;;0.00;0.00;;;;;;;6.54;54.97;101864.44;16726728;26;20054;-50
2024/04/21 17:16:19;;;;;;;0.30;0.30;;;;;;;6.64;54.09;101875.84;16691870;26;19999;-52
2024/04/21 17:23:56;;;;;;;0.22;0.22;;;;;;;6.76;54.49;101866.59;16689988;26;20009;-52
2024/04/21 17:31:32;;;;;;;1.00;0.73;;;;;;;6.89;53.96;101860.81;16699032;26;20318;-50
2024/04/21 17:39:10;;;;;;;0.30;0.30;;;;;;;7.03;54.04;101870.91;16707121;26;20000;-48
2024/04/21 17:46:52;;;;;;;0.00;0.00;;;;;;;7.14;53.94;101878.66;16704437;26;20004;-48
2024/04/21 17:54:30;;;;;;;0.10;0.10;;;;;;;7.50;53.50;101893.63;16693209;26;20005;-49
2024/04/21 18:02:05;;;;;;;0.30;0.30;;;;;;;7.27;54.03;101896.03;16680681;26;20350;-47
2024/04/21 18:09:44;;;;;;;0.00;0.00;;;;;;;7.02;55.66;101890.59;16685102;26;20079;-50
2024/04/21 18:17:19;;;;;;;0.15;0.15;;;;;;;6.90;56.29;101899.84;16707344;26;20068;-50
2024/04/21 18:24:57;;;;;;;0.00;0.00;;;;;;;6.53;57.22;101895.63;16677910;26;20008;-51
2024/04/21 18:32:31;;;;;;;0.00;0.00;;;;;;;6.66;56.77;101905.88;16681342;26;20015;-47
2024/04/21 18:40:11;;;;;;;0.10;0.10;;;;;;;6.69;56.61;101907.41;16683430;26;20008;-48
2024/04/21 18:47:47;;;;;;;3.63;1.65;;;;;;;6.57;56.94;101912.97;16698875;26;20004;-49
2024/04/21 18:55:25;;;;;;;0.35;0.35;;;;;;;6.40;57.15;101921.84;16614290;26;20016;-50
2024/04/21 19:03:03;;;;;;;0.00;0.00;;;;;;;5.86;58.00;101926.28;16687462;26;20011;-49
2024/04/21 19:10:42;;;;;;;0.40;0.30;;;;;;;6.34;56.80;101928.66;16680321;26;20053;-52
2024/04/21 19:18:20;;;;;;;0.00;0.00;;;;;;;6.02;57.17;101933.66;16723494;26;20000;-50
2024/04/21 19:25:57;;;;;;;0.25;0.25;;;;;;;5.62;58.50;101927.69;16719976;26;20008;-53
2024/04/21 19:33:33;;;;;;;0.00;0.00;;;;;;;5.72;58.94;101932.97;16733547;26;19996;-51
2024/04/21 19:41:11;;;;;;;0.03;0.03;;;;;;;5.52;59.13;101937.56;16727103;26;20444;-51
2024/04/21 19:48:47;;;;;;;0.00;0.00;;;;;;;5.14;56.90;101948.38;16672109;26;20015;-50
2024/04/21 19:56:25;;;;;;;0.00;0.00;;;;;;;5.47;56.11;101950.47;16764213;26;20003;-48
2024/04/21 20:04:02;;;;;;;0.00;0.00;;;;;;;5.13;56.45;101952.84;16697482;26;20004;-53
2024/04/21 20:11:41;;;;;;;0.00;0.00;;;;;;;4.96;54.98;101958.91;16692972;26;20296;-51
2024/04/21 20:19:16;;;;;;;0.35;0.35;;;;;;;4.45;55.29;101970.72;16756924;26;20014;-55
2024/04/21 20:26:54;;;;;;;0.00;0.00;;;;;;;4.66;55.61;101971.41;16797186;26;20003;-51
2024/04/21 20:34:29;;;;;;;0.00;0.00;;;;;;;4.72;55.65;101970.03;16753667;26;20000;-52
2024/04/21 20:42:07;;;;;;;1.30;0.32;;;;;;;4.16;55.99;101974.22;16686260;26;20000;-49
2024/04/21 20:49:45;;;;;;;0.00;0.00;;;;;;;3.97;54.82;101985.66;16718115;26;20453;-49
2024/04/21 20:57:23;;;;;;;0.00;0.00;;;;;;;4.13;54.80;101986.94;16763889;26;20421;-53
2024/04/21 21:04:58;;;;;;;0.00;0.00;;;;;;;3.71;56.04;101995.06;16672738;26;20000;-50
2024/04/21 21:12:36;;;;;;;0.00;0.00;;;;;;;3.55;56.56;101993.75;16676587;26;19996;-49
2024/04/21 21:20:16;;;;;;;0.00;0.00;;;;;;;3.60;56.56;101995.19;16690335;26;20043;-46
2024/04/21 21:27:55;;;;;;;0.03;0.03;;;;;;;3.67;56.18;101991.00;16740555;26;20000;-47
2024/04/21 21:35:31;;;;;;;0.13;0.13;;;;;;;3.29;56.30;101952.72;16695699;26;20024;-49
2024/04/21 21:43:09;;;;;;;0.00;0.00;;;;;;;3.86;55.31;102001.69;16795167;26;20330;-48
2024/04/21 21:50:44;;;;;;;0.10;0.10;;;;;;;3.96;55.31;102007.00;16774629;26;20018;-46
2024/04/21 21:58:22;;;;;;;0.00;0.00;;;;;;;3.38;55.57;101990.88;16762189;26;20000;-47
2024/04/21 22:05:58;;;;;;;0.00;0.00;;;;;;;3.18;55.08;102000.56;16670650;26;20412;-46
2024/04/21 22:13:36;;;;;;;0.52;0.52;;;;;;;3.47;52.85;102000.72;16730154;26;19999;-48
2024/04/21 22:21:11;;;;;;;0.00;0.00;;;;;;;3.48;53.15;102002.38;16792143;26;20419;-48
2024/04/21 22:28:49;;;;;;;0.30;0.30;;;;;;;2.93;53.19;102013.22;16762530;26;20000;-46
2024/04/21 22:36:24;;;;;;;0.00;0.00;;;;;;;2.66;51.80;101999.63;16723882;26;20359;-46
2024/04/21 22:44:03;;;;;;;0.00;0.00;;;;;;;2.35;51.39;101999.53;16651339;26;20015;-47
2024/04/21 22:51:38;;;;;;;0.00;0.00;;;;;;;2.38;51.43;101999.28;16766973;26;19999;-46
2024/04/21 22:59:16;;;;;;;0.00;0.00;;;;;;;2.26;51.14;102000.28;16760532;26;20075;-49
2024/04/21 23:06:51;;;;;;;0.00;0.00;;;;;;;2.11;51.03;102006.81;16694242;26;20027;-49
2024/04/21 23:14:34;;;;;;;0.00;0.00;;;;;;;2.29;51.61;102000.03;16681117;26;20045;-46
2024/04/21 23:22:10;;;;;;;0.00;0.00;;;;;;;2.14;51.65;102002.09;16733489;26;19996;-48
2024/04/21 23:29:47;;;;;;;0.03;0.03;;;;;;;1.80;53.27;102006.63;16679204;26;20011;-44
2024/04/21 23:37:22;;;;;;;0.00;0.00;;;;;;;1.93;53.93;102006.50;16705735;26;20463;-45
2024/04/21 23:45:00;;;;;;;0.00;0.00;;;;;;;1.80;54.11;102009.28;16678068;26;20342;-46
2024/04/21 23:52:36;;;;;;;0.00;0.00;;;;;;;2.09;54.54;102011.38;16674435;26;20008;-46
